sensor_id;sensor_type;location;lat;lon;timestamp;P1;durP1;ratioP1;P2;durP2;ratioP2
56122;SDS011;42426;46.104;19.656;2023-08-20T00:01:31;21.50;;;19.35;;
56122;SDS011;42426;46.104;19.656;2023-08-20T00:03:57;20.73;;;18.58;;
56122;SDS011;42426;46.104;19.656;2023-08-20T00:06:23;20.25;;;18.15;;
56122;SDS011;42426;46.104;19.656;2023-08-20T00:08:49;20.70;;;18.52;;
56122;SDS011;42426;46.104;19.656;2023-08-20T00:11:15;20.80;;;18.30;;
56122;SDS011;42426;46.104;19.656;2023-08-20T00:13:41;22.85;;;20.38;;
56122;SDS011;42426;46.104;19.656;2023-08-20T00:16:08;21.75;;;19.45;;
56122;SDS011;42426;46.104;19.656;2023-08-20T00:18:34;20.27;;;18.17;;
56122;SDS011;42426;46.104;19.656;2023-08-20T00:21:00;25.83;;;19.02;;
56122;SDS011;42426;46.104;19.656;2023-08-20T00:23:26;21.60;;;18.08;;
56122;SDS011;42426;46.104;19.656;2023-08-20T00:25:52;19.63;;;17.67;;
56122;SDS011;42426;46.104;19.656;2023-08-20T00:28:19;20.55;;;18.45;;
56122;SDS011;42426;46.104;19.656;2023-08-20T00:30:45;21.00;;;18.73;;
56122;SDS011;42426;46.104;19.656;2023-08-20T00:33:11;21.90;;;19.60;;
56122;SDS011;42426;46.104;19.656;2023-08-20T00:35:37;25.60;;;18.90;;
56122;SDS011;42426;46.104;19.656;2023-08-20T00:38:03;21.27;;;19.05;;
56122;SDS011;42426;46.104;19.656;2023-08-20T00:40:30;23.15;;;18.42;;
56122;SDS011;42426;46.104;19.656;2023-08-20T00:42:56;21.15;;;18.92;;
56122;SDS011;42426;46.104;19.656;2023-08-20T00:45:22;20.50;;;18.33;;
56122;SDS011;42426;46.104;19.656;2023-08-20T00:47:48;23.67;;;20.45;;
56122;SDS011;42426;46.104;19.656;2023-08-20T00:50:14;20.80;;;18.58;;
56122;SDS011;42426;46.104;19.656;2023-08-20T00:52:41;22.50;;;19.48;;
56122;SDS011;42426;46.104;19.656;2023-08-20T00:55:08;20.92;;;18.73;;
56122;SDS011;42426;46.104;19.656;2023-08-20T00:57:36;20.85;;;18.58;;
56122;SDS011;42426;46.104;19.656;2023-08-20T01:00:03;25.05;;;20.52;;
56122;SDS011;42426;46.104;19.656;2023-08-20T01:02:33;21.63;;;19.10;;
56122;SDS011;42426;46.104;19.656;2023-08-20T01:04:59;20.92;;;18.58;;
56122;SDS011;42426;46.104;19.656;2023-08-20T01:12:39;27.92;;;19.35;;
56122;SDS011;42426;46.104;19.656;2023-08-20T01:15:06;20.70;;;18.52;;
56122;SDS011;42426;46.104;19.656;2023-08-20T01:17:38;22.25;;;19.75;;
56122;SDS011;42426;46.104;19.656;2023-08-20T01:20:05;21.10;;;18.90;;
56122;SDS011;42426;46.104;19.656;2023-08-20T01:30:57;23.98;;;18.83;;
56122;SDS011;42426;46.104;19.656;2023-08-20T01:33:24;20.48;;;18.27;;
56122;SDS011;42426;46.104;19.656;2023-08-20T01:35:51;23.05;;;20.08;;
56122;SDS011;42426;46.104;19.656;2023-08-20T01:38:17;21.75;;;19.08;;
56122;SDS011;42426;46.104;19.656;2023-08-20T01:40:43;20.60;;;18.38;;
56122;SDS011;42426;46.104;19.656;2023-08-20T01:43:08;21.98;;;19.65;;
56122;SDS011;42426;46.104;19.656;2023-08-20T01:45:34;24.45;;;19.85;;
56122;SDS011;42426;46.104;19.656;2023-08-20T01:48:00;22.08;;;19.73;;
56122;SDS011;42426;46.104;19.656;2023-08-20T01:50:26;25.98;;;18.27;;
56122;SDS011;42426;46.104;19.656;2023-08-20T01:52:52;21.40;;;18.73;;
56122;SDS011;42426;46.104;19.656;2023-08-20T01:55:17;21.35;;;19.13;;
56122;SDS011;42426;46.104;19.656;2023-08-20T01:57:43;22.45;;;20.15;;
56122;SDS011;42426;46.104;19.656;2023-08-20T02:00:09;22.25;;;19.35;;
56122;SDS011;42426;46.104;19.656;2023-08-20T02:02:35;25.88;;;18.67;;
56122;SDS011;42426;46.104;19.656;2023-08-20T02:05:01;21.60;;;18.77;;
56122;SDS011;42426;46.104;19.656;2023-08-20T02:07:26;21.92;;;18.90;;
56122;SDS011;42426;46.104;19.656;2023-08-20T02:09:52;21.42;;;19.20;;
56122;SDS011;42426;46.104;19.656;2023-08-20T02:12:18;22.00;;;19.70;;
56122;SDS011;42426;46.104;19.656;2023-08-20T02:14:43;21.27;;;19.02;;
56122;SDS011;42426;46.104;19.656;2023-08-20T02:17:09;20.65;;;17.80;;
56122;SDS011;42426;46.104;19.656;2023-08-20T02:19:37;20.70;;;18.45;;
56122;SDS011;42426;46.104;19.656;2023-08-20T02:22:03;22.40;;;20.10;;
56122;SDS011;42426;46.104;19.656;2023-08-20T02:24:29;23.27;;;20.30;;
56122;SDS011;42426;46.104;19.656;2023-08-20T02:26:55;21.52;;;19.27;;
56122;SDS011;42426;46.104;19.656;2023-08-20T02:29:21;23.08;;;19.60;;
56122;SDS011;42426;46.104;19.656;2023-08-20T02:31:46;26.90;;;19.40;;
56122;SDS011;42426;46.104;19.656;2023-08-20T02:34:12;21.80;;;19.35;;
56122;SDS011;42426;46.104;19.656;2023-08-20T02:36:38;25.63;;;19.60;;
56122;SDS011;42426;46.104;19.656;2023-08-20T02:39:03;25.20;;;19.08;;
56122;SDS011;42426;46.104;19.656;2023-08-20T02:41:32;23.52;;;18.58;;
56122;SDS011;42426;46.104;19.656;2023-08-20T02:43:59;21.55;;;19.25;;
56122;SDS011;42426;46.104;19.656;2023-08-20T02:46:25;21.80;;;19.50;;
56122;SDS011;42426;46.104;19.656;2023-08-20T02:48:50;21.13;;;18.63;;
56122;SDS011;42426;46.104;19.656;2023-08-20T02:51:16;21.05;;;18.75;;
56122;SDS011;42426;46.104;19.656;2023-08-20T02:53:42;20.45;;;18.20;;
56122;SDS011;42426;46.104;19.656;2023-08-20T02:56:08;23.85;;;19.95;;
56122;SDS011;42426;46.104;19.656;2023-08-20T02:58:34;20.33;;;17.80;;
56122;SDS011;42426;46.104;19.656;2023-08-20T03:00:59;20.67;;;18.50;;
56122;SDS011;42426;46.104;19.656;2023-08-20T03:03:25;21.60;;;18.10;;
56122;SDS011;42426;46.104;19.656;2023-08-20T03:05:51;19.45;;;17.33;;
56122;SDS011;42426;46.104;19.656;2023-08-20T03:08:16;19.77;;;17.67;;
56122;SDS011;42426;46.104;19.656;2023-08-20T03:10:42;21.60;;;19.40;;
56122;SDS011;42426;46.104;19.656;2023-08-20T03:13:08;27.02;;;19.35;;
56122;SDS011;42426;46.104;19.656;2023-08-20T03:15:33;21.05;;;18.23;;
56122;SDS011;42426;46.104;19.656;2023-08-20T03:17:59;19.88;;;17.75;;
56122;SDS011;42426;46.104;19.656;2023-08-20T03:20:25;21.65;;;18.15;;
56122;SDS011;42426;46.104;19.656;2023-08-20T03:22:53;20.38;;;17.45;;
56122;SDS011;42426;46.104;19.656;2023-08-20T03:25:19;19.13;;;16.73;;
56122;SDS011;42426;46.104;19.656;2023-08-20T03:27:44;24.67;;;19.63;;
56122;SDS011;42426;46.104;19.656;2023-08-20T03:30:10;20.83;;;17.77;;
56122;SDS011;42426;46.104;19.656;2023-08-20T03:32:36;22.83;;;19.35;;
56122;SDS011;42426;46.104;19.656;2023-08-20T03:35:02;19.88;;;17.27;;
56122;SDS011;42426;46.104;19.656;2023-08-20T03:37:28;19.55;;;17.55;;
56122;SDS011;42426;46.104;19.656;2023-08-20T03:39:53;20.75;;;18.55;;
56122;SDS011;42426;46.104;19.656;2023-08-20T03:42:19;20.77;;;18.27;;
56122;SDS011;42426;46.104;19.656;2023-08-20T03:44:45;19.83;;;17.55;;
56122;SDS011;42426;46.104;19.656;2023-08-20T03:47:11;25.08;;;19.50;;
56122;SDS011;42426;46.104;19.656;2023-08-20T03:49:37;21.73;;;19.40;;
56122;SDS011;42426;46.104;19.656;2023-08-20T03:52:03;20.15;;;16.88;;
56122;SDS011;42426;46.104;19.656;2023-08-20T03:54:31;20.55;;;18.45;;
56122;SDS011;42426;46.104;19.656;2023-08-20T03:56:58;21.05;;;18.27;;
56122;SDS011;42426;46.104;19.656;2023-08-20T03:59:23;23.15;;;18.30;;
56122;SDS011;42426;46.104;19.656;2023-08-20T04:01:49;20.10;;;18.00;;
56122;SDS011;42426;46.104;19.656;2023-08-20T04:04:15;19.83;;;17.02;;
56122;SDS011;42426;46.104;19.656;2023-08-20T04:06:41;19.73;;;17.65;;
56122;SDS011;42426;46.104;19.656;2023-08-20T04:09:06;20.35;;;17.63;;
56122;SDS011;42426;46.104;19.656;2023-08-20T04:11:34;21.65;;;18.45;;
56122;SDS011;42426;46.104;19.656;2023-08-20T04:14:00;20.95;;;18.35;;
56122;SDS011;42426;46.104;19.656;2023-08-20T04:16:26;21.23;;;19.02;;
56122;SDS011;42426;46.104;19.656;2023-08-20T04:18:51;19.13;;;17.10;;
56122;SDS011;42426;46.104;19.656;2023-08-20T04:21:17;19.98;;;17.88;;
56122;SDS011;42426;46.104;19.656;2023-08-20T04:23:43;21.75;;;19.38;;
56122;SDS011;42426;46.104;19.656;2023-08-20T04:26:08;20.30;;;18.30;;
56122;SDS011;42426;46.104;19.656;2023-08-20T04:28:34;22.02;;;17.55;;
56122;SDS011;42426;46.104;19.656;2023-08-20T04:31:00;20.83;;;16.98;;
56122;SDS011;42426;46.104;19.656;2023-08-20T04:33:26;20.88;;;17.92;;
56122;SDS011;42426;46.104;19.656;2023-08-20T04:35:52;20.00;;;18.02;;
56122;SDS011;42426;46.104;19.656;2023-08-20T04:38:18;21.10;;;18.90;;
56122;SDS011;42426;46.104;19.656;2023-08-20T04:40:47;20.30;;;18.08;;
56122;SDS011;42426;46.104;19.656;2023-08-20T04:43:13;22.15;;;18.20;;
56122;SDS011;42426;46.104;19.656;2023-08-20T04:45:40;19.60;;;17.70;;
56122;SDS011;42426;46.104;19.656;2023-08-20T04:48:06;23.05;;;17.75;;
56122;SDS011;42426;46.104;19.656;2023-08-20T04:50:32;20.67;;;18.35;;
56122;SDS011;42426;46.104;19.656;2023-08-20T04:52:58;20.55;;;17.90;;
56122;SDS011;42426;46.104;19.656;2023-08-20T04:55:27;19.80;;;17.40;;
56122;SDS011;42426;46.104;19.656;2023-08-20T04:57:53;19.10;;;17.08;;
56122;SDS011;42426;46.104;19.656;2023-08-20T05:00:19;18.50;;;16.60;;
56122;SDS011;42426;46.104;19.656;2023-08-20T05:02:45;20.23;;;17.23;;
56122;SDS011;42426;46.104;19.656;2023-08-20T05:05:11;24.60;;;18.98;;
56122;SDS011;42426;46.104;19.656;2023-08-20T05:07:36;19.80;;;16.77;;
56122;SDS011;42426;46.104;19.656;2023-08-20T05:10:02;20.75;;;18.60;;
56122;SDS011;42426;46.104;19.656;2023-08-20T05:12:28;18.92;;;16.92;;
56122;SDS011;42426;46.104;19.656;2023-08-20T05:14:54;28.90;;;16.58;;
56122;SDS011;42426;46.104;19.656;2023-08-20T05:17:20;19.15;;;17.10;;
56122;SDS011;42426;46.104;19.656;2023-08-20T05:19:45;22.48;;;16.52;;
56122;SDS011;42426;46.104;19.656;2023-08-20T05:22:11;20.52;;;17.98;;
56122;SDS011;42426;46.104;19.656;2023-08-20T05:24:37;18.83;;;16.73;;
56122;SDS011;42426;46.104;19.656;2023-08-20T05:27:04;17.90;;;16.10;;
56122;SDS011;42426;46.104;19.656;2023-08-20T05:29:30;18.15;;;16.33;;
56122;SDS011;42426;46.104;19.656;2023-08-20T05:31:56;20.10;;;18.05;;
56122;SDS011;42426;46.104;19.656;2023-08-20T05:34:22;19.65;;;17.63;;
56122;SDS011;42426;46.104;19.656;2023-08-20T05:36:47;19.73;;;16.80;;
56122;SDS011;42426;46.104;19.656;2023-08-20T05:39:13;18.45;;;16.20;;
56122;SDS011;42426;46.104;19.656;2023-08-20T05:41:39;19.23;;;16.63;;
56122;SDS011;42426;46.104;19.656;2023-08-20T05:44:04;19.10;;;15.98;;
56122;SDS011;42426;46.104;19.656;2023-08-20T05:46:30;18.23;;;16.20;;
56122;SDS011;42426;46.104;19.656;2023-08-20T05:48:56;18.65;;;16.75;;
56122;SDS011;42426;46.104;19.656;2023-08-20T05:51:22;19.15;;;17.15;;
56122;SDS011;42426;46.104;19.656;2023-08-20T05:53:47;25.25;;;17.80;;
56122;SDS011;42426;46.104;19.656;2023-08-20T05:56:13;20.88;;;18.40;;
56122;SDS011;42426;46.104;19.656;2023-08-20T05:58:39;16.98;;;15.18;;
56122;SDS011;42426;46.104;19.656;2023-08-20T06:01:04;19.02;;;15.90;;
56122;SDS011;42426;46.104;19.656;2023-08-20T06:03:30;21.33;;;17.95;;
56122;SDS011;42426;46.104;19.656;2023-08-20T06:05:57;20.85;;;15.98;;
56122;SDS011;42426;46.104;19.656;2023-08-20T06:08:23;18.83;;;15.85;;
56122;SDS011;42426;46.104;19.656;2023-08-20T06:10:49;16.33;;;14.63;;
56122;SDS011;42426;46.104;19.656;2023-08-20T06:13:15;17.50;;;15.70;;
56122;SDS011;42426;46.104;19.656;2023-08-20T06:15:40;19.17;;;14.35;;
56122;SDS011;42426;46.104;19.656;2023-08-20T06:18:06;16.63;;;15.02;;
56122;SDS011;42426;46.104;19.656;2023-08-20T06:20:32;16.38;;;14.75;;
56122;SDS011;42426;46.104;19.656;2023-08-20T06:22:58;23.70;;;14.52;;
56122;SDS011;42426;46.104;19.656;2023-08-20T06:25:23;16.27;;;14.48;;
56122;SDS011;42426;46.104;19.656;2023-08-20T06:27:49;17.25;;;14.75;;
56122;SDS011;42426;46.104;19.656;2023-08-20T06:30:15;16.15;;;14.52;;
56122;SDS011;42426;46.104;19.656;2023-08-20T06:32:42;16.90;;;14.75;;
56122;SDS011;42426;46.104;19.656;2023-08-20T06:35:09;16.17;;;14.32;;
56122;SDS011;42426;46.104;19.656;2023-08-20T06:37:35;19.00;;;14.90;;
56122;SDS011;42426;46.104;19.656;2023-08-20T06:40:01;15.00;;;13.40;;
56122;SDS011;42426;46.104;19.656;2023-08-20T06:42:26;18.95;;;14.30;;
56122;SDS011;42426;46.104;19.656;2023-08-20T06:44:52;20.60;;;14.27;;
56122;SDS011;42426;46.104;19.656;2023-08-20T06:47:18;20.73;;;15.73;;
56122;SDS011;42426;46.104;19.656;2023-08-20T06:49:43;17.25;;;15.05;;
56122;SDS011;42426;46.104;19.656;2023-08-20T06:52:09;17.80;;;14.88;;
56122;SDS011;42426;46.104;19.656;2023-08-20T06:54:35;17.23;;;14.45;;
56122;SDS011;42426;46.104;19.656;2023-08-20T06:57:01;21.08;;;14.73;;
56122;SDS011;42426;46.104;19.656;2023-08-20T06:59:27;16.98;;;14.88;;
56122;SDS011;42426;46.104;19.656;2023-08-20T07:01:53;17.25;;;14.20;;
56122;SDS011;42426;46.104;19.656;2023-08-20T07:04:18;16.88;;;14.27;;
56122;SDS011;42426;46.104;19.656;2023-08-20T07:06:44;15.93;;;13.70;;
56122;SDS011;42426;46.104;19.656;2023-08-20T07:09:10;15.60;;;13.85;;
56122;SDS011;42426;46.104;19.656;2023-08-20T07:11:36;19.80;;;15.15;;
56122;SDS011;42426;46.104;19.656;2023-08-20T07:14:02;15.95;;;13.68;;
56122;SDS011;42426;46.104;19.656;2023-08-20T07:16:28;16.52;;;14.80;;
56122;SDS011;42426;46.104;19.656;2023-08-20T07:18:54;15.50;;;13.52;;
56122;SDS011;42426;46.104;19.656;2023-08-20T07:21:20;17.65;;;13.32;;
56122;SDS011;42426;46.104;19.656;2023-08-20T07:23:46;15.40;;;13.80;;
56122;SDS011;42426;46.104;19.656;2023-08-20T07:26:12;21.55;;;14.93;;
56122;SDS011;42426;46.104;19.656;2023-08-20T07:28:39;17.83;;;13.68;;
56122;SDS011;42426;46.104;19.656;2023-08-20T07:31:21;20.02;;;13.65;;
56122;SDS011;42426;46.104;19.656;2023-08-20T07:33:48;14.80;;;12.80;;
56122;SDS011;42426;46.104;19.656;2023-08-20T07:36:14;17.77;;;13.48;;
56122;SDS011;42426;46.104;19.656;2023-08-20T07:38:40;13.63;;;12.43;;
56122;SDS011;42426;46.104;19.656;2023-08-20T07:41:08;13.70;;;12.30;;
56122;SDS011;42426;46.104;19.656;2023-08-20T07:43:34;14.35;;;12.90;;
56122;SDS011;42426;46.104;19.656;2023-08-20T07:46:00;15.07;;;12.48;;
56122;SDS011;42426;46.104;19.656;2023-08-20T07:48:26;15.25;;;13.43;;
56122;SDS011;42426;46.104;19.656;2023-08-20T07:50:52;14.20;;;12.77;;
56122;SDS011;42426;46.104;19.656;2023-08-20T07:53:18;14.48;;;13.05;;
56122;SDS011;42426;46.104;19.656;2023-08-20T07:55:44;16.60;;;13.52;;
56122;SDS011;42426;46.104;19.656;2023-08-20T07:58:10;13.48;;;12.02;;
56122;SDS011;42426;46.104;19.656;2023-08-20T08:00:36;14.30;;;12.80;;
56122;SDS011;42426;46.104;19.656;2023-08-20T08:03:02;16.60;;;12.98;;
56122;SDS011;42426;46.104;19.656;2023-08-20T08:05:28;16.42;;;12.95;;
56122;SDS011;42426;46.104;19.656;2023-08-20T08:07:55;14.27;;;12.77;;
56122;SDS011;42426;46.104;19.656;2023-08-20T08:10:21;15.77;;;14.18;;
56122;SDS011;42426;46.104;19.656;2023-08-20T08:12:47;12.98;;;11.77;;
56122;SDS011;42426;46.104;19.656;2023-08-20T08:15:13;13.95;;;12.68;;
56122;SDS011;42426;46.104;19.656;2023-08-20T08:17:39;19.83;;;12.80;;
56122;SDS011;42426;46.104;19.656;2023-08-20T08:20:06;15.40;;;13.88;;
56122;SDS011;42426;46.104;19.656;2023-08-20T08:22:32;15.45;;;12.95;;
56122;SDS011;42426;46.104;19.656;2023-08-20T08:24:58;15.82;;;12.57;;
56122;SDS011;42426;46.104;19.656;2023-08-20T08:27:25;13.60;;;12.38;;
56122;SDS011;42426;46.104;19.656;2023-08-20T08:29:51;13.68;;;12.32;;
56122;SDS011;42426;46.104;19.656;2023-08-20T08:32:17;13.93;;;12.50;;
56122;SDS011;42426;46.104;19.656;2023-08-20T08:34:43;14.63;;;13.23;;
56122;SDS011;42426;46.104;19.656;2023-08-20T08:37:09;13.80;;;12.38;;
56122;SDS011;42426;46.104;19.656;2023-08-20T08:39:35;17.63;;;12.20;;
56122;SDS011;42426;46.104;19.656;2023-08-20T08:42:01;13.60;;;12.40;;
56122;SDS011;42426;46.104;19.656;2023-08-20T08:44:30;15.20;;;12.52;;
56122;SDS011;42426;46.104;19.656;2023-08-20T08:46:57;14.95;;;13.55;;
56122;SDS011;42426;46.104;19.656;2023-08-20T08:49:23;14.73;;;13.00;;
56122;SDS011;42426;46.104;19.656;2023-08-20T08:51:51;18.20;;;12.98;;
56122;SDS011;42426;46.104;19.656;2023-08-20T08:54:17;17.52;;;12.73;;
56122;SDS011;42426;46.104;19.656;2023-08-20T08:56:43;28.23;;;14.05;;
56122;SDS011;42426;46.104;19.656;2023-08-20T08:59:09;19.38;;;13.48;;
56122;SDS011;42426;46.104;19.656;2023-08-20T09:01:39;19.95;;;12.57;;
56122;SDS011;42426;46.104;19.656;2023-08-20T09:04:05;13.93;;;12.23;;
56122;SDS011;42426;46.104;19.656;2023-08-20T09:06:47;15.80;;;13.15;;
56122;SDS011;42426;46.104;19.656;2023-08-20T09:09:14;15.32;;;13.63;;
56122;SDS011;42426;46.104;19.656;2023-08-20T09:11:40;17.63;;;13.90;;
56122;SDS011;42426;46.104;19.656;2023-08-20T09:14:08;14.30;;;12.55;;
56122;SDS011;42426;46.104;19.656;2023-08-20T09:16:46;19.92;;;12.77;;
56122;SDS011;42426;46.104;19.656;2023-08-20T09:19:12;14.68;;;13.32;;
56122;SDS011;42426;46.104;19.656;2023-08-20T09:21:38;13.70;;;12.32;;
56122;SDS011;42426;46.104;19.656;2023-08-20T09:24:04;15.65;;;12.52;;
56122;SDS011;42426;46.104;19.656;2023-08-20T09:26:31;14.15;;;12.85;;
56122;SDS011;42426;46.104;19.656;2023-08-20T09:29:00;13.18;;;11.82;;
56122;SDS011;42426;46.104;19.656;2023-08-20T09:31:46;23.10;;;15.25;;
56122;SDS011;42426;46.104;19.656;2023-08-20T09:34:13;16.95;;;12.77;;
56122;SDS011;42426;46.104;19.656;2023-08-20T09:36:39;14.43;;;13.02;;
56122;SDS011;42426;46.104;19.656;2023-08-20T09:39:05;14.23;;;11.93;;
56122;SDS011;42426;46.104;19.656;2023-08-20T09:41:31;14.52;;;12.95;;
56122;SDS011;42426;46.104;19.656;2023-08-20T09:43:59;14.35;;;12.95;;
56122;SDS011;42426;46.104;19.656;2023-08-20T09:46:26;14.05;;;12.75;;
56122;SDS011;42426;46.104;19.656;2023-08-20T09:48:52;14.93;;;13.32;;
56122;SDS011;42426;46.104;19.656;2023-08-20T09:51:24;13.32;;;12.00;;
56122;SDS011;42426;46.104;19.656;2023-08-20T09:53:55;13.30;;;12.15;;
56122;SDS011;42426;46.104;19.656;2023-08-20T09:56:24;14.10;;;12.27;;
56122;SDS011;42426;46.104;19.656;2023-08-20T09:58:53;13.88;;;12.50;;
56122;SDS011;42426;46.104;19.656;2023-08-20T10:01:20;16.73;;;13.00;;
56122;SDS011;42426;46.104;19.656;2023-08-20T10:03:46;15.25;;;13.10;;
56122;SDS011;42426;46.104;19.656;2023-08-20T10:06:12;13.82;;;12.52;;
56122;SDS011;42426;46.104;19.656;2023-08-20T10:08:39;14.85;;;13.27;;
56122;SDS011;42426;46.104;19.656;2023-08-20T10:11:05;19.10;;;12.32;;
56122;SDS011;42426;46.104;19.656;2023-08-20T10:13:31;16.42;;;12.82;;
56122;SDS011;42426;46.104;19.656;2023-08-20T10:15:57;14.48;;;12.98;;
56122;SDS011;42426;46.104;19.656;2023-08-20T10:18:23;17.35;;;12.25;;
56122;SDS011;42426;46.104;19.656;2023-08-20T10:20:50;12.70;;;11.50;;
56122;SDS011;42426;46.104;19.656;2023-08-20T10:23:19;13.07;;;11.77;;
56122;SDS011;42426;46.104;19.656;2023-08-20T10:25:48;15.63;;;14.18;;
56122;SDS011;42426;46.104;19.656;2023-08-20T10:28:47;16.25;;;14.55;;
56122;SDS011;42426;46.104;19.656;2023-08-20T10:31:10;14.55;;;13.07;;
56122;SDS011;42426;46.104;19.656;2023-08-20T10:33:48;15.85;;;12.95;;
56122;SDS011;42426;46.104;19.656;2023-08-20T10:36:18;14.65;;;13.25;;
56122;SDS011;42426;46.104;19.656;2023-08-20T10:38:47;13.95;;;12.65;;
56122;SDS011;42426;46.104;19.656;2023-08-20T10:41:14;13.82;;;12.50;;
56122;SDS011;42426;46.104;19.656;2023-08-20T10:43:47;13.63;;;12.20;;
56122;SDS011;42426;46.104;19.656;2023-08-20T10:46:20;13.07;;;11.85;;
56122;SDS011;42426;46.104;19.656;2023-08-20T10:54:02;15.23;;;11.68;;
56122;SDS011;42426;46.104;19.656;2023-08-20T10:59:07;12.50;;;11.23;;
56122;SDS011;42426;46.104;19.656;2023-08-20T11:01:33;14.02;;;12.68;;
56122;SDS011;42426;46.104;19.656;2023-08-20T11:04:00;13.68;;;12.23;;
56122;SDS011;42426;46.104;19.656;2023-08-20T11:06:33;13.02;;;11.80;;
56122;SDS011;42426;46.104;19.656;2023-08-20T11:08:59;13.32;;;12.05;;
56122;SDS011;42426;46.104;19.656;2023-08-20T11:11:25;12.93;;;11.73;;
56122;SDS011;42426;46.104;19.656;2023-08-20T11:13:51;13.60;;;11.20;;
56122;SDS011;42426;46.104;19.656;2023-08-20T11:16:17;14.15;;;12.90;;
56122;SDS011;42426;46.104;19.656;2023-08-20T11:18:45;15.82;;;11.70;;
56122;SDS011;42426;46.104;19.656;2023-08-20T11:21:11;13.55;;;12.18;;
56122;SDS011;42426;46.104;19.656;2023-08-20T11:23:38;12.30;;;11.20;;
56122;SDS011;42426;46.104;19.656;2023-08-20T11:26:07;12.70;;;11.52;;
56122;SDS011;42426;46.104;19.656;2023-08-20T11:28:33;14.52;;;11.38;;
56122;SDS011;42426;46.104;19.656;2023-08-20T11:30:59;12.00;;;10.85;;
56122;SDS011;42426;46.104;19.656;2023-08-20T11:33:26;14.13;;;11.50;;
56122;SDS011;42426;46.104;19.656;2023-08-20T11:35:52;14.35;;;11.43;;
56122;SDS011;42426;46.104;19.656;2023-08-20T11:38:20;11.52;;;10.40;;
56122;SDS011;42426;46.104;19.656;2023-08-20T11:40:47;13.02;;;11.73;;
56122;SDS011;42426;46.104;19.656;2023-08-20T11:43:13;12.48;;;11.20;;
56122;SDS011;42426;46.104;19.656;2023-08-20T11:45:46;12.75;;;11.45;;
56122;SDS011;42426;46.104;19.656;2023-08-20T11:48:13;13.30;;;11.10;;
56122;SDS011;42426;46.104;19.656;2023-08-20T11:50:39;14.70;;;11.93;;
56122;SDS011;42426;46.104;19.656;2023-08-20T11:53:06;13.45;;;12.18;;
56122;SDS011;42426;46.104;19.656;2023-08-20T11:55:33;14.05;;;12.63;;
56122;SDS011;42426;46.104;19.656;2023-08-20T11:57:59;13.93;;;12.60;;
56122;SDS011;42426;46.104;19.656;2023-08-20T12:00:25;13.25;;;12.00;;
56122;SDS011;42426;46.104;19.656;2023-08-20T12:02:52;13.35;;;12.10;;
56122;SDS011;42426;46.104;19.656;2023-08-20T12:05:19;12.88;;;11.60;;
56122;SDS011;42426;46.104;19.656;2023-08-20T12:07:58;13.48;;;12.18;;
56122;SDS011;42426;46.104;19.656;2023-08-20T12:10:26;13.82;;;12.35;;
56122;SDS011;42426;46.104;19.656;2023-08-20T12:12:52;12.07;;;10.88;;
56122;SDS011;42426;46.104;19.656;2023-08-20T12:15:19;12.45;;;11.15;;
56122;SDS011;42426;46.104;19.656;2023-08-20T12:17:58;16.70;;;11.80;;
56122;SDS011;42426;46.104;19.656;2023-08-20T12:20:26;12.95;;;11.85;;
56122;SDS011;42426;46.104;19.656;2023-08-20T12:22:52;13.82;;;12.43;;
56122;SDS011;42426;46.104;19.656;2023-08-20T12:25:18;13.60;;;12.23;;
56122;SDS011;42426;46.104;19.656;2023-08-20T12:27:45;14.75;;;11.45;;
56122;SDS011;42426;46.104;19.656;2023-08-20T12:30:12;13.45;;;11.93;;
56122;SDS011;42426;46.104;19.656;2023-08-20T12:32:38;12.70;;;11.60;;
56122;SDS011;42426;46.104;19.656;2023-08-20T12:35:04;13.35;;;12.00;;
56122;SDS011;42426;46.104;19.656;2023-08-20T12:37:31;12.45;;;11.35;;
56122;SDS011;42426;46.104;19.656;2023-08-20T12:39:57;17.73;;;15.48;;
56122;SDS011;42426;46.104;19.656;2023-08-20T12:42:24;12.40;;;11.15;;
56122;SDS011;42426;46.104;19.656;2023-08-20T12:44:50;13.40;;;12.10;;
56122;SDS011;42426;46.104;19.656;2023-08-20T12:47:16;12.10;;;10.88;;
56122;SDS011;42426;46.104;19.656;2023-08-20T12:49:42;12.82;;;10.93;;
56122;SDS011;42426;46.104;19.656;2023-08-20T12:52:08;12.85;;;11.75;;
56122;SDS011;42426;46.104;19.656;2023-08-20T12:54:34;12.57;;;11.40;;
56122;SDS011;42426;46.104;19.656;2023-08-20T12:57:01;14.45;;;13.18;;
56122;SDS011;42426;46.104;19.656;2023-08-20T12:59:27;13.95;;;12.60;;
56122;SDS011;42426;46.104;19.656;2023-08-20T13:01:53;12.02;;;10.80;;
56122;SDS011;42426;46.104;19.656;2023-08-20T13:04:19;13.60;;;12.38;;
56122;SDS011;42426;46.104;19.656;2023-08-20T13:06:46;20.52;;;18.55;;
56122;SDS011;42426;46.104;19.656;2023-08-20T13:09:12;15.07;;;13.88;;
56122;SDS011;42426;46.104;19.656;2023-08-20T13:11:40;12.52;;;11.32;;
56122;SDS011;42426;46.104;19.656;2023-08-20T13:14:08;12.70;;;11.35;;
56122;SDS011;42426;46.104;19.656;2023-08-20T13:16:34;11.77;;;10.63;;
56122;SDS011;42426;46.104;19.656;2023-08-20T13:19:00;13.85;;;12.38;;
56122;SDS011;42426;46.104;19.656;2023-08-20T13:21:27;12.25;;;11.15;;
56122;SDS011;42426;46.104;19.656;2023-08-20T13:23:53;16.17;;;14.45;;
56122;SDS011;42426;46.104;19.656;2023-08-20T13:26:19;14.45;;;13.05;;
56122;SDS011;42426;46.104;19.656;2023-08-20T13:28:47;13.85;;;12.18;;
56122;SDS011;42426;46.104;19.656;2023-08-20T13:31:13;13.73;;;11.75;;
56122;SDS011;42426;46.104;19.656;2023-08-20T13:33:39;12.15;;;10.95;;
56122;SDS011;42426;46.104;19.656;2023-08-20T13:36:05;12.57;;;11.48;;
56122;SDS011;42426;46.104;19.656;2023-08-20T13:38:34;13.90;;;12.20;;
56122;SDS011;42426;46.104;19.656;2023-08-20T13:41:00;15.40;;;13.93;;
56122;SDS011;42426;46.104;19.656;2023-08-20T13:43:26;17.48;;;15.80;;
56122;SDS011;42426;46.104;19.656;2023-08-20T13:45:52;16.50;;;14.88;;
56122;SDS011;42426;46.104;19.656;2023-08-20T13:48:18;13.27;;;11.32;;
56122;SDS011;42426;46.104;19.656;2023-08-20T13:50:44;14.90;;;13.60;;
56122;SDS011;42426;46.104;19.656;2023-08-20T13:53:10;13.95;;;12.55;;
56122;SDS011;42426;46.104;19.656;2023-08-20T13:55:36;22.40;;;14.40;;
56122;SDS011;42426;46.104;19.656;2023-08-20T13:58:02;15.10;;;13.52;;
56122;SDS011;42426;46.104;19.656;2023-08-20T14:00:29;13.45;;;12.15;;
56122;SDS011;42426;46.104;19.656;2023-08-20T14:02:55;13.50;;;12.20;;
56122;SDS011;42426;46.104;19.656;2023-08-20T14:05:21;15.07;;;12.20;;
56122;SDS011;42426;46.104;19.656;2023-08-20T14:07:47;11.98;;;10.82;;
56122;SDS011;42426;46.104;19.656;2023-08-20T14:10:13;12.48;;;11.38;;
56122;SDS011;42426;46.104;19.656;2023-08-20T14:12:39;12.77;;;11.68;;
56122;SDS011;42426;46.104;19.656;2023-08-20T14:15:05;11.10;;;10.00;;
56122;SDS011;42426;46.104;19.656;2023-08-20T14:17:32;13.20;;;11.75;;
56122;SDS011;42426;46.104;19.656;2023-08-20T14:19:58;12.77;;;11.48;;
56122;SDS011;42426;46.104;19.656;2023-08-20T14:22:24;13.20;;;11.90;;
56122;SDS011;42426;46.104;19.656;2023-08-20T14:24:50;12.07;;;10.93;;
56122;SDS011;42426;46.104;19.656;2023-08-20T14:27:17;12.05;;;10.98;;